sensor_id;sensor_type;location;lat;lon;timestamp;P1;durP1;ratioP1;P2;durP2;ratioP2
61617;SDS011;47518;51.776;9.370;2023-04-28T00:01:41;11.18;;;7.72;;
61617;SDS011;47518;51.776;9.370;2023-04-28T00:04:06;11.02;;;7.75;;
61617;SDS011;47518;51.776;9.370;2023-04-28T00:06:32;13.32;;;8.70;;
61617;SDS011;47518;51.776;9.370;2023-04-28T00:08:57;13.75;;;8.88;;
61617;SDS011;47518;51.776;9.370;2023-04-28T00:11:23;11.52;;;8.02;;
61617;SDS011;47518;51.776;9.370;2023-04-28T00:13:48;12.73;;;8.32;;
61617;SDS011;47518;51.776;9.370;2023-04-28T00:16:14;10.38;;;8.10;;
61617;SDS011;47518;51.776;9.370;2023-04-28T00:18:45;9.75;;;8.00;;
61617;SDS011;47518;51.776;9.370;2023-04-28T00:21:11;12.80;;;8.13;;
61617;SDS011;47518;51.776;9.370;2023-04-28T00:23:36;9.23;;;7.82;;
61617;SDS011;47518;51.776;9.370;2023-04-28T00:26:01;11.45;;;8.10;;
61617;SDS011;47518;51.776;9.370;2023-04-28T00:28:27;9.40;;;8.35;;
61617;SDS011;47518;51.776;9.370;2023-04-28T00:30:52;9.32;;;7.88;;
61617;SDS011;47518;51.776;9.370;2023-04-28T00:33:17;11.43;;;8.40;;
61617;SDS011;47518;51.776;9.370;2023-04-28T00:35:43;9.75;;;8.50;;
61617;SDS011;47518;51.776;9.370;2023-04-28T00:38:08;10.00;;;8.15;;
61617;SDS011;47518;51.776;9.370;2023-04-28T00:40:34;10.82;;;8.05;;
61617;SDS011;47518;51.776;9.370;2023-04-28T00:43:00;12.07;;;8.35;;
61617;SDS011;47518;51.776;9.370;2023-04-28T00:45:26;12.75;;;8.77;;
61617;SDS011;47518;51.776;9.370;2023-04-28T00:47:51;11.85;;;8.55;;
61617;SDS011;47518;51.776;9.370;2023-04-28T00:50:18;11.68;;;8.50;;
61617;SDS011;47518;51.776;9.370;2023-04-28T00:52:43;13.15;;;8.93;;
61617;SDS011;47518;51.776;9.370;2023-04-28T00:55:09;12.65;;;8.75;;
61617;SDS011;47518;51.776;9.370;2023-04-28T00:57:38;11.98;;;8.90;;
61617;SDS011;47518;51.776;9.370;2023-04-28T01:00:04;10.18;;;8.45;;
61617;SDS011;47518;51.776;9.370;2023-04-28T01:02:31;12.18;;;8.90;;
61617;SDS011;47518;51.776;9.370;2023-04-28T01:04:58;13.45;;;8.90;;
61617;SDS011;47518;51.776;9.370;2023-04-28T01:07:28;13.43;;;8.70;;
61617;SDS011;47518;51.776;9.370;2023-04-28T01:09:54;11.10;;;8.52;;
61617;SDS011;47518;51.776;9.370;2023-04-28T01:12:20;12.23;;;8.50;;
61617;SDS011;47518;51.776;9.370;2023-04-28T01:14:45;9.57;;;8.48;;
61617;SDS011;47518;51.776;9.370;2023-04-28T01:17:12;14.32;;;9.20;;
61617;SDS011;47518;51.776;9.370;2023-04-28T01:19:38;15.48;;;9.07;;
61617;SDS011;47518;51.776;9.370;2023-04-28T01:22:03;12.98;;;9.20;;
61617;SDS011;47518;51.776;9.370;2023-04-28T01:24:29;11.93;;;9.05;;
61617;SDS011;47518;51.776;9.370;2023-04-28T01:26:54;13.65;;;9.52;;
61617;SDS011;47518;51.776;9.370;2023-04-28T01:29:19;13.10;;;8.93;;
61617;SDS011;47518;51.776;9.370;2023-04-28T01:31:45;11.18;;;8.57;;
61617;SDS011;47518;51.776;9.370;2023-04-28T01:34:10;10.60;;;8.63;;
61617;SDS011;47518;51.776;9.370;2023-04-28T01:36:36;11.48;;;8.93;;
61617;SDS011;47518;51.776;9.370;2023-04-28T01:39:01;11.50;;;8.80;;
61617;SDS011;47518;51.776;9.370;2023-04-28T01:41:26;12.30;;;9.18;;
61617;SDS011;47518;51.776;9.370;2023-04-28T01:43:52;12.02;;;9.05;;
61617;SDS011;47518;51.776;9.370;2023-04-28T01:46:20;14.27;;;9.15;;
61617;SDS011;47518;51.776;9.370;2023-04-28T01:48:45;11.75;;;8.90;;
61617;SDS011;47518;51.776;9.370;2023-04-28T01:51:11;11.95;;;8.73;;
61617;SDS011;47518;51.776;9.370;2023-04-28T01:53:37;11.90;;;8.88;;
61617;SDS011;47518;51.776;9.370;2023-04-28T01:56:02;12.60;;;8.73;;
61617;SDS011;47518;51.776;9.370;2023-04-28T01:58:28;12.32;;;9.50;;
61617;SDS011;47518;51.776;9.370;2023-04-28T02:00:53;13.80;;;9.32;;
61617;SDS011;47518;51.776;9.370;2023-04-28T02:03:24;12.30;;;9.35;;
61617;SDS011;47518;51.776;9.370;2023-04-28T02:05:51;11.38;;;9.50;;
61617;SDS011;47518;51.776;9.370;2023-04-28T02:08:16;11.80;;;9.32;;
61617;SDS011;47518;51.776;9.370;2023-04-28T02:10:42;14.95;;;9.68;;
61617;SDS011;47518;51.776;9.370;2023-04-28T02:13:15;14.98;;;9.30;;
61617;SDS011;47518;51.776;9.370;2023-04-28T02:15:48;10.88;;;8.45;;
61617;SDS011;47518;51.776;9.370;2023-04-28T02:18:17;14.90;;;9.10;;
61617;SDS011;47518;51.776;9.370;2023-04-28T02:20:42;11.48;;;9.05;;
61617;SDS011;47518;51.776;9.370;2023-04-28T02:23:08;11.93;;;9.07;;
61617;SDS011;47518;51.776;9.370;2023-04-28T02:25:33;9.35;;;8.40;;
61617;SDS011;47518;51.776;9.370;2023-04-28T02:27:59;9.93;;;8.52;;
61617;SDS011;47518;51.776;9.370;2023-04-28T02:30:26;9.57;;;8.57;;
61617;SDS011;47518;51.776;9.370;2023-04-28T02:32:52;13.38;;;9.25;;
61617;SDS011;47518;51.776;9.370;2023-04-28T02:35:17;11.93;;;9.05;;
61617;SDS011;47518;51.776;9.370;2023-04-28T02:37:43;13.93;;;9.23;;
61617;SDS011;47518;51.776;9.370;2023-04-28T02:40:08;12.98;;;8.98;;
61617;SDS011;47518;51.776;9.370;2023-04-28T02:42:34;11.52;;;9.38;;
61617;SDS011;47518;51.776;9.370;2023-04-28T02:44:59;11.38;;;9.10;;
61617;SDS011;47518;51.776;9.370;2023-04-28T02:47:24;14.85;;;9.65;;
61617;SDS011;47518;51.776;9.370;2023-04-28T02:49:50;14.85;;;10.10;;
61617;SDS011;47518;51.776;9.370;2023-04-28T02:52:15;13.68;;;9.93;;
61617;SDS011;47518;51.776;9.370;2023-04-28T02:54:43;14.77;;;9.25;;
61617;SDS011;47518;51.776;9.370;2023-04-28T02:57:12;11.25;;;9.40;;
61617;SDS011;47518;51.776;9.370;2023-04-28T02:59:37;13.40;;;10.05;;
61617;SDS011;47518;51.776;9.370;2023-04-28T03:02:03;17.25;;;10.10;;
61617;SDS011;47518;51.776;9.370;2023-04-28T03:04:28;13.63;;;9.98;;
61617;SDS011;47518;51.776;9.370;2023-04-28T03:06:53;19.27;;;10.65;;
61617;SDS011;47518;51.776;9.370;2023-04-28T03:09:19;13.68;;;9.43;;
61617;SDS011;47518;51.776;9.370;2023-04-28T03:11:44;14.00;;;9.63;;
61617;SDS011;47518;51.776;9.370;2023-04-28T03:14:09;15.48;;;9.68;;
61617;SDS011;47518;51.776;9.370;2023-04-28T03:16:35;14.00;;;9.30;;
61617;SDS011;47518;51.776;9.370;2023-04-28T03:19:01;13.60;;;9.80;;
61617;SDS011;47518;51.776;9.370;2023-04-28T03:21:27;13.05;;;10.02;;
61617;SDS011;47518;51.776;9.370;2023-04-28T03:23:52;13.73;;;9.73;;
61617;SDS011;47518;51.776;9.370;2023-04-28T03:26:18;16.48;;;10.05;;
61617;SDS011;47518;51.776;9.370;2023-04-28T03:28:44;12.95;;;9.90;;
61617;SDS011;47518;51.776;9.370;2023-04-28T03:31:10;12.73;;;9.85;;
61617;SDS011;47518;51.776;9.370;2023-04-28T03:33:35;12.93;;;9.30;;
61617;SDS011;47518;51.776;9.370;2023-04-28T03:36:00;14.43;;;9.82;;
61617;SDS011;47518;51.776;9.370;2023-04-28T03:38:29;12.63;;;9.88;;
61617;SDS011;47518;51.776;9.370;2023-04-28T03:40:54;24.77;;;10.38;;
61617;SDS011;47518;51.776;9.370;2023-04-28T03:43:20;17.42;;;10.52;;
61617;SDS011;47518;51.776;9.370;2023-04-28T03:45:45;15.55;;;10.32;;
61617;SDS011;47518;51.776;9.370;2023-04-28T03:48:11;14.05;;;10.70;;
61617;SDS011;47518;51.776;9.370;2023-04-28T03:50:36;14.38;;;10.13;;
61617;SDS011;47518;51.776;9.370;2023-04-28T03:53:01;14.65;;;10.02;;
61617;SDS011;47518;51.776;9.370;2023-04-28T03:55:27;12.60;;;9.18;;
61617;SDS011;47518;51.776;9.370;2023-04-28T03:57:52;14.43;;;10.00;;
61617;SDS011;47518;51.776;9.370;2023-04-28T04:00:17;13.90;;;10.02;;
61617;SDS011;47518;51.776;9.370;2023-04-28T04:02:43;18.02;;;10.57;;
61617;SDS011;47518;51.776;9.370;2023-04-28T04:05:08;15.23;;;9.68;;
61617;SDS011;47518;51.776;9.370;2023-04-28T04:07:34;12.85;;;9.52;;
61617;SDS011;47518;51.776;9.370;2023-04-28T04:09:59;14.60;;;9.68;;
61617;SDS011;47518;51.776;9.370;2023-04-28T04:12:24;16.73;;;9.88;;
61617;SDS011;47518;51.776;9.370;2023-04-28T04:14:50;11.32;;;9.07;;
61617;SDS011;47518;51.776;9.370;2023-04-28T04:17:15;14.30;;;9.55;;
61617;SDS011;47518;51.776;9.370;2023-04-28T04:19:40;12.52;;;9.52;;
61617;SDS011;47518;51.776;9.370;2023-04-28T04:22:05;11.65;;;9.38;;
61617;SDS011;47518;51.776;9.370;2023-04-28T04:24:34;12.30;;;9.05;;
61617;SDS011;47518;51.776;9.370;2023-04-28T04:26:59;12.43;;;8.95;;
61617;SDS011;47518;51.776;9.370;2023-04-28T04:29:25;11.68;;;9.07;;
61617;SDS011;47518;51.776;9.370;2023-04-28T04:31:50;13.70;;;9.77;;
61617;SDS011;47518;51.776;9.370;2023-04-28T04:34:16;12.65;;;9.60;;
61617;SDS011;47518;51.776;9.370;2023-04-28T04:36:41;15.20;;;9.40;;
61617;SDS011;47518;51.776;9.370;2023-04-28T04:39:06;11.88;;;9.38;;
61617;SDS011;47518;51.776;9.370;2023-04-28T04:41:31;15.50;;;9.70;;
61617;SDS011;47518;51.776;9.370;2023-04-28T04:43:57;15.30;;;9.30;;
61617;SDS011;47518;51.776;9.370;2023-04-28T04:46:22;14.77;;;9.40;;
61617;SDS011;47518;51.776;9.370;2023-04-28T04:48:48;11.82;;;9.20;;
61617;SDS011;47518;51.776;9.370;2023-04-28T04:51:13;12.48;;;9.55;;
61617;SDS011;47518;51.776;9.370;2023-04-28T04:53:39;14.38;;;8.57;;
61617;SDS011;47518;51.776;9.370;2023-04-28T04:56:04;14.00;;;9.00;;
61617;SDS011;47518;51.776;9.370;2023-04-28T04:58:30;11.63;;;8.73;;
61617;SDS011;47518;51.776;9.370;2023-04-28T05:00:55;15.13;;;8.88;;
61617;SDS011;47518;51.776;9.370;2023-04-28T05:03:21;12.30;;;8.50;;
61617;SDS011;47518;51.776;9.370;2023-04-28T05:06:05;14.25;;;9.10;;
61617;SDS011;47518;51.776;9.370;2023-04-28T05:08:30;12.30;;;9.00;;
61617;SDS011;47518;51.776;9.370;2023-04-28T05:10:55;15.05;;;8.88;;
61617;SDS011;47518;51.776;9.370;2023-04-28T05:13:21;14.07;;;10.60;;
61617;SDS011;47518;51.776;9.370;2023-04-28T05:15:47;14.35;;;10.30;;
61617;SDS011;47518;51.776;9.370;2023-04-28T05:18:12;16.70;;;10.38;;
61617;SDS011;47518;51.776;9.370;2023-04-28T05:20:38;15.05;;;10.60;;
61617;SDS011;47518;51.776;9.370;2023-04-28T05:23:04;16.85;;;10.60;;
61617;SDS011;47518;51.776;9.370;2023-04-28T05:25:33;14.25;;;11.15;;
61617;SDS011;47518;51.776;9.370;2023-04-28T05:28:11;15.00;;;11.27;;
61617;SDS011;47518;51.776;9.370;2023-04-28T05:30:40;15.77;;;10.48;;
61617;SDS011;47518;51.776;9.370;2023-04-28T05:33:07;16.88;;;11.75;;
61617;SDS011;47518;51.776;9.370;2023-04-28T05:35:44;15.73;;;11.05;;
61617;SDS011;47518;51.776;9.370;2023-04-28T05:38:10;17.13;;;11.18;;
61617;SDS011;47518;51.776;9.370;2023-04-28T05:40:44;15.57;;;10.93;;
61617;SDS011;47518;51.776;9.370;2023-04-28T05:43:13;17.23;;;11.10;;
61617;SDS011;47518;51.776;9.370;2023-04-28T05:45:44;12.90;;;10.85;;
61617;SDS011;47518;51.776;9.370;2023-04-28T05:48:19;15.70;;;11.43;;
61617;SDS011;47518;51.776;9.370;2023-04-28T05:50:45;16.90;;;11.02;;
61617;SDS011;47518;51.776;9.370;2023-04-28T05:53:18;18.40;;;10.95;;
61617;SDS011;47518;51.776;9.370;2023-04-28T05:55:45;14.77;;;11.23;;
61617;SDS011;47518;51.776;9.370;2023-04-28T05:58:13;17.50;;;11.25;;
61617;SDS011;47518;51.776;9.370;2023-04-28T06:00:51;17.30;;;10.88;;
61617;SDS011;47518;51.776;9.370;2023-04-28T06:03:17;18.20;;;11.00;;
61617;SDS011;47518;51.776;9.370;2023-04-28T06:05:48;15.80;;;11.05;;
61617;SDS011;47518;51.776;9.370;2023-04-28T06:08:22;16.55;;;11.32;;
61617;SDS011;47518;51.776;9.370;2023-04-28T06:24:23;18.77;;;13.30;;
61617;SDS011;47518;51.776;9.370;2023-04-28T06:26:57;15.02;;;12.13;;
61617;SDS011;47518;51.776;9.370;2023-04-28T06:29:36;14.75;;;11.88;;
61617;SDS011;47518;51.776;9.370;2023-04-28T06:32:03;15.32;;;11.43;;
61617;SDS011;47518;51.776;9.370;2023-04-28T06:34:28;14.77;;;11.57;;
61617;SDS011;47518;51.776;9.370;2023-04-28T06:36:58;13.07;;;11.70;;
61617;SDS011;47518;51.776;9.370;2023-04-28T06:39:40;21.83;;;11.93;;
61617;SDS011;47518;51.776;9.370;2023-04-28T06:42:25;14.13;;;11.90;;
61617;SDS011;47518;51.776;9.370;2023-04-28T06:45:14;16.35;;;11.55;;
61617;SDS011;47518;51.776;9.370;2023-04-28T06:47:42;14.15;;;11.80;;
61617;SDS011;47518;51.776;9.370;2023-04-28T06:50:08;19.73;;;11.55;;
61617;SDS011;47518;51.776;9.370;2023-04-28T06:52:56;18.05;;;11.63;;
61617;SDS011;47518;51.776;9.370;2023-04-28T06:55:22;14.23;;;12.00;;
61617;SDS011;47518;51.776;9.370;2023-04-28T06:57:49;17.08;;;11.75;;
61617;SDS011;47518;51.776;9.370;2023-04-28T07:00:15;17.67;;;11.90;;
61617;SDS011;47518;51.776;9.370;2023-04-28T07:02:50;18.90;;;11.98;;
61617;SDS011;47518;51.776;9.370;2023-04-28T07:11:33;16.42;;;12.05;;
61617;SDS011;47518;51.776;9.370;2023-04-28T07:14:14;16.73;;;12.13;;
61617;SDS011;47518;51.776;9.370;2023-04-28T07:19:40;17.73;;;12.18;;
61617;SDS011;47518;51.776;9.370;2023-04-28T07:22:40;19.73;;;12.25;;
61617;SDS011;47518;51.776;9.370;2023-04-28T07:24:58;16.42;;;12.52;;
61617;SDS011;47518;51.776;9.370;2023-04-28T07:27:24;15.50;;;12.13;;
61617;SDS011;47518;51.776;9.370;2023-04-28T07:30:01;16.92;;;12.10;;
61617;SDS011;47518;51.776;9.370;2023-04-28T07:35:57;15.13;;;12.23;;
61617;SDS011;47518;51.776;9.370;2023-04-28T07:38:29;15.27;;;11.93;;
61617;SDS011;47518;51.776;9.370;2023-04-28T07:41:02;16.55;;;12.20;;
61617;SDS011;47518;51.776;9.370;2023-04-28T07:43:28;16.10;;;12.13;;
61617;SDS011;47518;51.776;9.370;2023-04-28T07:46:05;15.52;;;11.55;;
61617;SDS011;47518;51.776;9.370;2023-04-28T07:51:11;17.65;;;11.68;;
61617;SDS011;47518;51.776;9.370;2023-04-28T07:56:11;13.77;;;11.43;;
61617;SDS011;47518;51.776;9.370;2023-04-28T07:58:39;15.90;;;12.02;;
61617;SDS011;47518;51.776;9.370;2023-04-28T08:01:11;18.98;;;11.88;;
61617;SDS011;47518;51.776;9.370;2023-04-28T08:03:56;14.75;;;11.38;;
61617;SDS011;47518;51.776;9.370;2023-04-28T08:06:21;14.32;;;12.15;;
61617;SDS011;47518;51.776;9.370;2023-04-28T08:08:47;16.75;;;11.48;;
61617;SDS011;47518;51.776;9.370;2023-04-28T08:11:13;17.05;;;11.38;;
61617;SDS011;47518;51.776;9.370;2023-04-28T08:13:38;18.40;;;12.10;;
61617;SDS011;47518;51.776;9.370;2023-04-28T08:16:03;14.13;;;11.70;;
61617;SDS011;47518;51.776;9.370;2023-04-28T08:18:41;14.95;;;11.60;;
61617;SDS011;47518;51.776;9.370;2023-04-28T08:21:10;14.30;;;11.82;;
61617;SDS011;47518;51.776;9.370;2023-04-28T08:23:48;15.82;;;11.60;;
61617;SDS011;47518;51.776;9.370;2023-04-28T08:29:08;15.75;;;10.68;;
61617;SDS011;47518;51.776;9.370;2023-04-28T08:31:39;13.55;;;11.20;;
61617;SDS011;47518;51.776;9.370;2023-04-28T08:34:07;13.48;;;10.75;;
61617;SDS011;47518;51.776;9.370;2023-04-28T08:36:35;13.48;;;11.40;;
61617;SDS011;47518;51.776;9.370;2023-04-28T08:39:13;15.88;;;11.60;;
61617;SDS011;47518;51.776;9.370;2023-04-28T08:41:49;15.60;;;11.35;;
61617;SDS011;47518;51.776;9.370;2023-04-28T08:44:18;14.15;;;11.55;;
61617;SDS011;47518;51.776;9.370;2023-04-28T08:49:51;12.10;;;10.50;;
61617;SDS011;47518;51.776;9.370;2023-04-28T08:52:23;15.35;;;10.77;;
61617;SDS011;47518;51.776;9.370;2023-04-28T08:55:12;13.20;;;10.80;;
61617;SDS011;47518;51.776;9.370;2023-04-28T08:58:13;13.13;;;10.80;;
61617;SDS011;47518;51.776;9.370;2023-04-28T09:00:45;13.68;;;10.00;;
61617;SDS011;47518;51.776;9.370;2023-04-28T09:03:11;15.55;;;10.98;;
61617;SDS011;47518;51.776;9.370;2023-04-28T09:06:00;14.45;;;10.88;;
61617;SDS011;47518;51.776;9.370;2023-04-28T09:08:27;12.35;;;10.10;;
61617;SDS011;47518;51.776;9.370;2023-04-28T09:11:11;14.05;;;10.40;;
61617;SDS011;47518;51.776;9.370;2023-04-28T09:13:40;14.02;;;10.32;;
61617;SDS011;47518;51.776;9.370;2023-04-28T09:16:05;11.27;;;9.88;;
61617;SDS011;47518;51.776;9.370;2023-04-28T09:18:36;11.57;;;9.30;;
61617;SDS011;47518;51.776;9.370;2023-04-28T09:21:02;11.65;;;9.95;;
61617;SDS011;47518;51.776;9.370;2023-04-28T09:23:47;15.70;;;9.95;;
61617;SDS011;47518;51.776;9.370;2023-04-28T09:26:17;13.55;;;10.15;;
61617;SDS011;47518;51.776;9.370;2023-04-28T09:28:43;13.60;;;10.15;;
61617;SDS011;47518;51.776;9.370;2023-04-28T09:31:24;11.93;;;9.95;;
61617;SDS011;47518;51.776;9.370;2023-04-28T09:33:56;13.07;;;10.02;;
61617;SDS011;47518;51.776;9.370;2023-04-28T09:36:55;11.15;;;9.30;;
61617;SDS011;47518;51.776;9.370;2023-04-28T09:39:29;12.90;;;10.13;;
61617;SDS011;47518;51.776;9.370;2023-04-28T09:42:01;15.15;;;10.52;;
61617;SDS011;47518;51.776;9.370;2023-04-28T09:44:31;17.02;;;11.25;;
61617;SDS011;47518;51.776;9.370;2023-04-28T09:47:18;14.43;;;11.45;;
61617;SDS011;47518;51.776;9.370;2023-04-28T09:49:53;15.70;;;11.32;;
61617;SDS011;47518;51.776;9.370;2023-04-28T09:52:20;15.27;;;11.95;;
61617;SDS011;47518;51.776;9.370;2023-04-28T09:54:48;14.25;;;11.82;;
61617;SDS011;47518;51.776;9.370;2023-04-28T09:57:19;13.15;;;11.75;;
61617;SDS011;47518;51.776;9.370;2023-04-28T09:59:49;14.77;;;11.73;;
61617;SDS011;47518;51.776;9.370;2023-04-28T10:02:16;14.45;;;11.85;;
61617;SDS011;47518;51.776;9.370;2023-04-28T10:04:51;16.50;;;12.13;;
61617;SDS011;47518;51.776;9.370;2023-04-28T10:08:13;15.60;;;12.15;;
61617;SDS011;47518;51.776;9.370;2023-04-28T10:10:30;15.95;;;11.85;;
61617;SDS011;47518;51.776;9.370;2023-04-28T10:12:58;15.63;;;11.82;;
61617;SDS011;47518;51.776;9.370;2023-04-28T10:15:26;13.90;;;11.38;;
61617;SDS011;47518;51.776;9.370;2023-04-28T10:17:55;14.77;;;11.88;;
61617;SDS011;47518;51.776;9.370;2023-04-28T10:20:23;15.05;;;12.27;;
61617;SDS011;47518;51.776;9.370;2023-04-28T10:25:44;14.02;;;11.85;;
61617;SDS011;47518;51.776;9.370;2023-04-28T10:28:16;15.57;;;11.80;;
61617;SDS011;47518;51.776;9.370;2023-04-28T10:31:07;14.00;;;11.52;;
61617;SDS011;47518;51.776;9.370;2023-04-28T10:33:37;14.45;;;11.35;;
61617;SDS011;47518;51.776;9.370;2023-04-28T10:39:32;19.05;;;11.50;;
61617;SDS011;47518;51.776;9.370;2023-04-28T11:08:48;16.50;;;11.40;;
61617;SDS011;47518;51.776;9.370;2023-04-28T11:11:14;12.50;;;11.20;;
61617;SDS011;47518;51.776;9.370;2023-04-28T11:13:41;15.57;;;11.80;;
61617;SDS011;47518;51.776;9.370;2023-04-28T11:16:07;12.68;;;11.30;;
61617;SDS011;47518;51.776;9.370;2023-04-28T11:18:41;15.60;;;12.15;;
61617;SDS011;47518;51.776;9.370;2023-04-28T11:21:25;15.30;;;12.15;;
61617;SDS011;47518;51.776;9.370;2023-04-28T11:23:52;15.20;;;12.45;;
61617;SDS011;47518;51.776;9.370;2023-04-28T11:26:18;17.23;;;12.55;;
61617;SDS011;47518;51.776;9.370;2023-04-28T11:28:45;18.42;;;12.23;;
61617;SDS011;47518;51.776;9.370;2023-04-28T11:31:12;18.98;;;11.95;;
61617;SDS011;47518;51.776;9.370;2023-04-28T11:33:38;14.57;;;11.63;;
61617;SDS011;47518;51.776;9.370;2023-04-28T11:36:05;15.13;;;11.20;;
61617;SDS011;47518;51.776;9.370;2023-04-28T11:38:41;15.13;;;10.77;;
61617;SDS011;47518;51.776;9.370;2023-04-28T11:41:08;13.27;;;11.10;;
61617;SDS011;47518;51.776;9.370;2023-04-28T11:43:33;13.93;;;11.40;;
61617;SDS011;47518;51.776;9.370;2023-04-28T11:46:00;18.05;;;10.95;;
61617;SDS011;47518;51.776;9.370;2023-04-28T11:48:25;14.90;;;11.65;;
61617;SDS011;47518;51.776;9.370;2023-04-28T11:50:51;14.70;;;11.95;;
61617;SDS011;47518;51.776;9.370;2023-04-28T11:53:16;14.80;;;11.50;;
61617;SDS011;47518;51.776;9.370;2023-04-28T11:55:42;15.90;;;12.20;;
61617;SDS011;47518;51.776;9.370;2023-04-28T11:58:23;15.27;;;12.05;;
61617;SDS011;47518;51.776;9.370;2023-04-28T12:03:50;15.13;;;12.13;;
61617;SDS011;47518;51.776;9.370;2023-04-28T12:06:16;14.25;;;12.45;;
61617;SDS011;47518;51.776;9.370;2023-04-28T12:08:43;16.38;;;11.73;;
61617;SDS011;47518;51.776;9.370;2023-04-28T12:11:09;17.65;;;12.32;;
61617;SDS011;47518;51.776;9.370;2023-04-28T12:13:36;17.30;;;12.05;;
61617;SDS011;47518;51.776;9.370;2023-04-28T12:16:03;13.73;;;11.60;;
61617;SDS011;47518;51.776;9.370;2023-04-28T12:18:31;13.25;;;11.32;;
61617;SDS011;47518;51.776;9.370;2023-04-28T12:20:57;14.77;;;11.68;;
61617;SDS011;47518;51.776;9.370;2023-04-28T12:23:38;14.90;;;11.25;;
61617;SDS011;47518;51.776;9.370;2023-04-28T12:26:05;15.27;;;10.70;;
61617;SDS011;47518;51.776;9.370;2023-04-28T12:28:35;12.60;;;10.68;;
61617;SDS011;47518;51.776;9.370;2023-04-28T12:31:03;11.67;;;10.37;;
61617;SDS011;47518;51.776;9.370;2023-04-28T12:33:32;12.23;;;10.20;;
61617;SDS011;47518;51.776;9.370;2023-04-28T12:36:01;11.75;;;10.05;;
61617;SDS011;47518;51.776;9.370;2023-04-28T12:38:28;11.32;;;9.93;;
61617;SDS011;47518;51.776;9.370;2023-04-28T12:40:53;11.68;;;10.18;;
61617;SDS011;47518;51.776;9.370;2023-04-28T12:43:19;12.43;;;9.73;;
61617;SDS011;47518;51.776;9.370;2023-04-28T12:45:47;13.40;;;10.10;;
61617;SDS011;47518;51.776;9.370;2023-04-28T12:48:17;13.25;;;10.30;;
61617;SDS011;47518;51.776;9.370;2023-04-28T12:50:58;15.52;;;10.35;;
61617;SDS011;47518;51.776;9.370;2023-04-28T12:53:24;12.65;;;9.18;;
61617;SDS011;47518;51.776;9.370;2023-04-28T12:55:49;11.77;;;9.60;;
61617;SDS011;47518;51.776;9.370;2023-04-28T12:58:16;12.88;;;9.93;;
61617;SDS011;47518;51.776;9.370;2023-04-28T13:00:42;12.13;;;9.70;;
61617;SDS011;47518;51.776;9.370;2023-04-28T13:03:07;11.00;;;9.70;;
61617;SDS011;47518;51.776;9.370;2023-04-28T13:08:24;11.40;;;10.20;;
61617;SDS011;47518;51.776;9.370;2023-04-28T13:10:50;13.50;;;10.25;;
61617;SDS011;47518;51.776;9.370;2023-04-28T13:13:16;15.77;;;10.80;;
61617;SDS011;47518;51.776;9.370;2023-04-28T13:15:42;12.43;;;11.13;;
61617;SDS011;47518;51.776;9.370;2023-04-28T13:18:07;12.43;;;10.95;;
61617;SDS011;47518;51.776;9.370;2023-04-28T13:20:36;13.88;;;11.20;;
61617;SDS011;47518;51.776;9.370;2023-04-28T13:23:01;14.10;;;11.57;;
61617;SDS011;47518;51.776;9.370;2023-04-28T13:25:27;14.82;;;10.95;;
61617;SDS011;47518;51.776;9.370;2023-04-28T13:27:52;13.30;;;10.82;;
61617;SDS011;47518;51.776;9.370;2023-04-28T13:30:18;12.27;;;10.45;;
61617;SDS011;47518;51.776;9.370;2023-04-28T13:32:46;12.18;;;10.45;;
61617;SDS011;47518;51.776;9.370;2023-04-28T13:35:11;14.00;;;11.05;;
61617;SDS011;47518;51.776;9.370;2023-04-28T13:37:37;12.20;;;10.90;;
61617;SDS011;47518;51.776;9.370;2023-04-28T13:40:06;13.25;;;10.73;;
61617;SDS011;47518;51.776;9.370;2023-04-28T13:42:32;15.15;;;11.00;;
61617;SDS011;47518;51.776;9.370;2023-04-28T13:44:58;11.90;;;10.60;;
61617;SDS011;47518;51.776;9.370;2023-04-28T13:47:23;15.10;;;11.00;;
61617;SDS011;47518;51.776;9.370;2023-04-28T13:49:49;12.45;;;11.20;;
61617;SDS011;47518;51.776;9.370;2023-04-28T13:52:15;11.70;;;10.38;;
61617;SDS011;47518;51.776;9.370;2023-04-28T13:54:41;16.42;;;10.57;;
61617;SDS011;47518;51.776;9.370;2023-04-28T13:57:06;13.20;;;10.50;;
61617;SDS011;47518;51.776;9.370;2023-04-28T13:59:32;13.35;;;10.50;;
61617;SDS011;47518;51.776;9.370;2023-04-28T14:01:58;16.17;;;11.10;;
61617;SDS011;47518;51.776;9.370;2023-04-28T14:04:23;13.05;;;11.40;;
61617;SDS011;47518;51.776;9.370;2023-04-28T14:06:48;12.70;;;10.38;;
61617;SDS011;47518;51.776;9.370;2023-04-28T14:09:20;13.20;;;11.00;;
61617;SDS011;47518;51.776;9.370;2023-04-28T14:11:45;15.43;;;11.30;;
61617;SDS011;47518;51.776;9.370;2023-04-28T14:14:10;13.30;;;11.38;;
61617;SDS011;47518;51.776;9.370;2023-04-28T14:16:36;14.25;;;11.73;;
61617;SDS011;47518;51.776;9.370;2023-04-28T14:19:01;13.98;;;11.07;;
61617;SDS011;47518;51.776;9.370;2023-04-28T14:21:27;12.23;;;10.93;;
61617;SDS011;47518;51.776;9.370;2023-04-28T14:23:52;12.52;;;11.05;;
61617;SDS011;47518;51.776;9.370;2023-04-28T14:26:17;12.98;;;11.20;;
61617;SDS011;47518;51.776;9.370;2023-04-28T14:28:43;14.00;;;11.05;;
61617;SDS011;47518;51.776;9.370;2023-04-28T14:31:09;14.52;;;11.18;;
61617;SDS011;47518;51.776;9.370;2023-04-28T14:33:35;12.93;;;11.48;;
61617;SDS011;47518;51.776;9.370;2023-04-28T14:36:00;17.80;;;11.63;;
61617;SDS011;47518;51.776;9.370;2023-04-28T14:38:26;15.85;;;11.85;;
61617;SDS011;47518;51.776;9.370;2023-04-28T14:40:52;14.43;;;12.40;;
61617;SDS011;47518;51.776;9.370;2023-04-28T14:43:21;13.27;;;11.85;;
61617;SDS011;47518;51.776;9.370;2023-04-28T14:45:46;13.23;;;11.25;;
61617;SDS011;47518;51.776;9.370;2023-04-28T14:48:13;13.43;;;11.65;;
61617;SDS011;47518;51.776;9.370;2023-04-28T14:50:39;14.65;;;11.60;;
61617;SDS011;47518;51.776;9.370;2023-04-28T14:53:07;13.00;;;11.55;;
61617;SDS011;47518;51.776;9.370;2023-04-28T14:55:35;14.93;;;12.07;;
61617;SDS011;47518;51.776;9.370;2023-04-28T14:58:04;12.85;;;11.35;;
61617;SDS011;47518;51.776;9.370;2023-04-28T15:00:30;14.38;;;10.88;;
61617;SDS011;47518;51.776;9.370;2023-04-28T15:02:55;12.85;;;10.88;;
61617;SDS011;47518;51.776;9.370;2023-04-28T15:05:24;13.65;;;10.77;;
61617;SDS011;47518;51.776;9.370;2023-04-28T15:08:08;13.77;;;11.63;;
61617;SDS011;47518;51.776;9.370;2023-04-28T15:10:37;15.52;;;10.70;;
61617;SDS011;47518;51.776;9.370;2023-04-28T15:13:03;13.23;;;11.25;;
61617;SDS011;47518;51.776;9.370;2023-04-28T15:15:29;16.13;;;11.85;;
61617;SDS011;47518;51.776;9.370;2023-04-28T15:17:54;13.70;;;11.20;;
61617;SDS011;47518;51.776;9.370;2023-04-28T15:20:24;12.38;;;11.07;;
61617;SDS011;47518;51.776;9.370;2023-04-28T15:22:51;13.05;;;11.65;;
61617;SDS011;47518;51.776;9.370;2023-04-28T15:25:16;13.48;;;11.43;;
61617;SDS011;47518;51.776;9.370;2023-04-28T15:27:42;15.13;;;11.93;;
61617;SDS011;47518;51.776;9.370;2023-04-28T15:30:07;13.32;;;12.02;;
61617;SDS011;47518;51.776;9.370;2023-04-28T15:32:33;13.45;;;11.75;;
61617;SDS011;47518;51.776;9.370;2023-04-28T15:34:58;13.98;;;12.57;;
61617;SDS011;47518;51.776;9.370;2023-04-28T15:37:40;18.52;;;12.15;;
61617;SDS011;47518;51.776;9.370;2023-04-28T15:40:08;13.40;;;11.40;;
61617;SDS011;47518;51.776;9.370;2023-04-28T15:42:35;14.18;;;12.40;;
61617;SDS011;47518;51.776;9.370;2023-04-28T15:45:01;12.63;;;10.90;;
61617;SDS011;47518;51.776;9.370;2023-04-28T15:47:27;13.77;;;11.73;;
61617;SDS011;47518;51.776;9.370;2023-04-28T15:49:54;14.02;;;11.23;;